Time;durP1;ratioP1;P1;durP2;ratioP2;P2;SDS_P1;SDS_P2;PMS_P1;PMS_P2;Temp;Humidity;BMP_temperature;BMP_pressure;BME280_temperature;BME280_humidity;BME280_pressure;Samples;Min_cycle;Max_cycle;Signal;HPM_P1;HPM_P2
2022/08/28 00:02:13;;;;;;;;;;;;;;;24.19;58.27;100415.41;7400533;19;1753;-43
2022/08/28 00:04:41;;;;;;;;;;;;;;;24.19;58.54;100419.94;7399392;19;1768;-44
2022/08/28 00:07:10;;;;;;;;;;;;;;;24.07;58.39;100430.31;7399368;19;1681;-44
2022/08/28 00:09:38;;;;;;;;;;;;;;;23.97;58.51;100421.59;7398067;19;1768;-44
2022/08/28 00:12:08;;;;;;;;;;;;;;;23.96;58.88;100430.72;7397997;19;1457;-43
2022/08/28 00:14:38;;;;;;;;;;;;;;;23.96;58.25;100428.03;7398811;19;1187;-43
2022/08/28 00:17:07;;;;;;;;;;;;;;;24.04;58.15;100433.38;7399672;19;1851;-43
2022/08/28 00:19:35;;;;;;;;;;;;;;;24.19;58.03;100431.59;7398524;19;1938;-43
2022/08/28 00:22:03;;;;;;;;;;;;;;;24.19;57.55;100423.50;7398731;19;1920;-43
2022/08/28 00:24:32;;;;;;;;;;;;;;;24.23;57.84;100437.47;7398646;19;1842;-43
2022/08/28 00:29:43;;;;;;;;;;;;;;;24.13;58.02;100440.44;7400481;19;1510;-44
2022/08/28 00:32:12;;;;;;;;;;;;;;;24.08;57.87;100432.00;7396976;19;1860;-44
2022/08/28 00:34:40;;;;;;;;;;;;;;;24.13;57.94;100445.84;7395792;19;1806;-43
2022/08/28 00:37:09;;;;;;;;;;;;;;;24.15;57.60;100446.50;7399633;19;1936;-44
2022/08/28 00:39:37;;;;;;;;;;;;;;;24.21;57.61;100432.28;7398696;19;1836;-43
2022/08/28 00:42:05;;;;;;;;;;;;;;;24.17;57.68;100447.16;7402954;19;1828;-44
2022/08/28 00:44:35;;;;;;;;;;;;;;;24.10;57.86;100429.97;7405137;19;1762;-43
2022/08/28 00:47:07;;;;;;;;;;;;;;;24.15;57.38;100432.13;7407535;19;1742;-43
2022/08/28 00:49:37;;;;;;;;;;;;;;;24.08;57.76;100441.97;7403822;19;1772;-44
2022/08/28 00:52:06;;;;;;;;;;;;;;;23.97;58.10;100435.09;7405163;19;2119;-43
2022/08/28 00:54:36;;;;;;;;;;;;;;;24.02;57.83;100440.81;7403174;19;1920;-43
2022/08/28 00:57:05;;;;;;;;;;;;;;;24.15;57.58;100433.00;7406370;19;1025;-43
2022/08/28 00:59:33;;;;;;;;;;;;;;;24.15;57.65;100438.38;7401623;19;2157;-44
2022/08/28 01:02:02;;;;;;;;;;;;;;;24.10;57.57;100446.16;7405079;19;1900;-44
2022/08/28 01:04:34;;;;;;;;;;;;;;;24.11;57.01;100428.94;7403363;19;1902;-44
2022/08/28 01:07:05;;;;;;;;;;;;;;;24.16;57.56;100428.41;7404651;19;1828;-44
2022/08/28 01:09:34;;;;;;;;;;;;;;;24.14;56.86;100435.84;7404730;19;1756;-44
2022/08/28 01:12:05;;;;;;;;;;;;;;;24.20;57.15;100463.00;7403962;19;1828;-45
2022/08/28 01:14:35;;;;;;;;;;;;;;;24.06;57.21;100450.25;7405141;19;1672;-44
2022/08/28 01:17:03;;;;;;;;;;;;;;;24.05;57.19;100448.56;7405723;19;2005;-43
2022/08/28 01:19:36;;;;;;;;;;;;;;;24.08;57.13;100441.97;7401202;19;1838;-44
2022/08/28 01:22:11;;;;;;;;;;;;;;;24.16;57.16;100460.84;7404293;19;1981;-43
2022/08/28 01:24:42;;;;;;;;;;;;;;;24.08;57.07;100456.31;7402913;19;1903;-44
2022/08/28 01:27:10;;;;;;;;;;;;;;;24.10;57.11;100459.69;7405023;19;1841;-43
2022/08/28 01:29:39;;;;;;;;;;;;;;;24.09;56.85;100466.09;7404970;19;1837;-43
2022/08/28 01:32:07;;;;;;;;;;;;;;;24.11;57.25;100464.03;7403757;19;1693;-43
2022/08/28 01:34:36;;;;;;;;;;;;;;;24.04;57.33;100460.38;7402430;19;1605;-44
2022/08/28 01:37:04;;;;;;;;;;;;;;;23.97;57.29;100456.69;7404070;19;1964;-44
2022/08/28 01:39:33;;;;;;;;;;;;;;;24.02;57.19;100443.53;7402561;19;1846;-43
2022/08/28 01:42:05;;;;;;;;;;;;;;;24.14;56.60;100447.50;7402813;19;1572;-43
2022/08/28 01:44:33;;;;;;;;;;;;;;;24.04;56.94;100457.69;7404036;19;1730;-44
2022/08/28 01:47:02;;;;;;;;;;;;;;;23.89;57.02;100449.47;7405515;19;1033;-43
2022/08/28 01:49:30;;;;;;;;;;;;;;;24.11;56.50;100452.41;7402687;19;1948;-44
2022/08/28 01:51:59;;;;;;;;;;;;;;;24.00;56.51;100445.56;7402067;19;1820;-44
2022/08/28 01:54:27;;;;;;;;;;;;;;;24.01;56.54;100447.22;7402644;19;1823;-43
2022/08/28 01:56:56;;;;;;;;;;;;;;;23.69;57.24;100459.81;7404406;19;1587;-44
2022/08/28 01:59:27;;;;;;;;;;;;;;;23.70;57.23;100456.09;7402540;19;1880;-44
2022/08/28 02:01:56;;;;;;;;;;;;;;;23.87;57.10;100439.88;7394727;19;3338;-57
2022/08/28 02:04:25;;;;;;;;;;;;;;;23.65;57.22;100463.88;7404694;19;1524;-57
2022/08/28 02:06:54;;;;;;;;;;;;;;;23.74;57.07;100446.63;7406704;19;1436;-57
2022/08/28 02:09:23;;;;;;;;;;;;;;;23.58;57.14;100438.59;7406271;19;1444;-57
2022/08/28 02:11:51;;;;;;;;;;;;;;;23.43;57.26;100439.31;7406115;19;1506;-57
2022/08/28 02:14:21;;;;;;;;;;;;;;;23.39;57.28;100446.06;7406911;19;1502;-57
2022/08/28 02:16:52;;;;;;;;;;;;;;;23.48;56.79;100436.09;7407301;19;1521;-57
2022/08/28 02:19:21;;;;;;;;;;;;;;;23.53;57.19;100449.06;7404779;19;1848;-57
2022/08/28 02:21:49;;;;;;;;;;;;;;;23.72;56.44;100459.47;7404786;19;1714;-62
2022/08/28 02:24:19;;;;;;;;;;;;;;;23.79;56.57;100441.56;7405043;19;1334;-62
2022/08/28 02:26:47;;;;;;;;;;;;;;;23.86;55.97;100455.25;7407318;19;1526;-62
2022/08/28 02:29:16;;;;;;;;;;;;;;;23.84;56.12;100459.13;7405685;19;1544;-62
2022/08/28 02:31:44;;;;;;;;;;;;;;;23.87;56.66;100447.97;7406730;19;1616;-61
2022/08/28 02:34:15;;;;;;;;;;;;;;;23.97;56.39;100462.09;7404564;19;1433;-62
2022/08/28 02:36:44;;;;;;;;;;;;;;;23.94;56.24;100441.69;7404898;19;1368;-61
2022/08/28 02:39:12;;;;;;;;;;;;;;;23.86;56.18;100443.59;7403049;19;1830;-61
2022/08/28 02:41:41;;;;;;;;;;;;;;;23.90;55.83;100445.75;7405407;19;1407;-57
2022/08/28 02:44:09;;;;;;;;;;;;;;;23.86;56.44;100465.19;7405098;19;1616;-57
2022/08/28 02:46:38;;;;;;;;;;;;;;;23.92;56.07;100468.03;7404352;19;1313;-57
2022/08/28 02:49:06;;;;;;;;;;;;;;;23.87;56.26;100456.91;7404043;19;1793;-57
2022/08/28 02:51:37;;;;;;;;;;;;;;;23.88;56.30;100471.28;7404925;19;1259;-57
2022/08/28 02:54:06;;;;;;;;;;;;;;;23.76;56.86;100460.81;7402309;19;1334;-57
2022/08/28 02:56:34;;;;;;;;;;;;;;;23.87;56.59;100469.56;7402699;19;1164;-58
2022/08/28 02:59:02;;;;;;;;;;;;;;;23.82;56.36;100472.81;7405436;19;1859;-57
2022/08/28 03:01:32;;;;;;;;;;;;;;;23.79;56.42;100476.66;7403055;19;1370;-57
2022/08/28 03:04:01;;;;;;;;;;;;;;;23.80;56.67;100485.63;7403733;19;1537;-57
2022/08/28 03:06:30;;;;;;;;;;;;;;;23.72;56.69;100481.06;7404425;19;1603;-57
2022/08/28 03:09:01;;;;;;;;;;;;;;;23.82;56.51;100478.22;7403547;19;1375;-57
2022/08/28 03:11:30;;;;;;;;;;;;;;;23.68;56.71;100470.81;7405756;19;1464;-57
2022/08/28 03:13:58;;;;;;;;;;;;;;;23.71;56.56;100479.38;7404470;19;1489;-57
2022/08/28 03:16:27;;;;;;;;;;;;;;;23.73;56.61;100490.00;7403359;19;1481;-57
2022/08/28 03:18:55;;;;;;;;;;;;;;;23.82;56.23;100495.25;7402395;19;1855;-57
2022/08/28 03:21:23;;;;;;;;;;;;;;;23.85;56.40;100501.31;7405031;19;1464;-57
2022/08/28 03:23:52;;;;;;;;;;;;;;;23.82;56.62;100489.00;7405204;19;1496;-57
2022/08/28 03:26:23;;;;;;;;;;;;;;;23.82;56.41;100487.16;7405174;19;1540;-57
2022/08/28 03:28:53;;;;;;;;;;;;;;;23.86;55.73;100503.00;7404249;19;1542;-57
2022/08/28 03:31:22;;;;;;;;;;;;;;;23.94;55.96;100501.09;7403344;19;1504;-61
2022/08/28 03:33:51;;;;;;;;;;;;;;;23.89;56.08;100497.25;7399231;19;1403;-62
2022/08/28 03:36:22;;;;;;;;;;;;;;;23.87;55.77;100493.88;7406022;19;1369;-62
2022/08/28 03:38:50;;;;;;;;;;;;;;;23.81;55.55;100512.47;7398954;19;1872;-62
2022/08/28 03:41:20;;;;;;;;;;;;;;;23.88;55.53;100495.56;7401352;19;1425;-57
2022/08/28 03:43:51;;;;;;;;;;;;;;;23.81;55.50;100496.28;7401680;19;1303;-57
2022/08/28 03:46:21;;;;;;;;;;;;;;;23.80;55.95;100509.94;7399433;19;1478;-57
2022/08/28 03:48:49;;;;;;;;;;;;;;;23.86;56.01;100505.72;7402937;19;1314;-58
2022/08/28 03:51:19;;;;;;;;;;;;;;;23.81;55.68;100507.06;7401997;19;1716;-57
2022/08/28 03:53:48;;;;;;;;;;;;;;;23.77;55.52;100489.50;7403589;19;1437;-57
2022/08/28 03:56:20;;;;;;;;;;;;;;;23.80;55.22;100504.53;7401786;19;1568;-62
2022/08/28 03:58:52;;;;;;;;;;;;;;;23.75;55.47;100502.31;7400645;19;1861;-57
2022/08/28 04:01:21;;;;;;;;;;;;;;;23.65;56.34;100512.47;7400811;19;1671;-57
2022/08/28 04:03:50;;;;;;;;;;;;;;;23.67;56.09;100517.69;7402084;19;1362;-57
2022/08/28 04:06:18;;;;;;;;;;;;;;;23.59;56.34;100513.16;7403806;19;1428;-57
2022/08/28 04:08:47;;;;;;;;;;;;;;;23.47;56.66;100518.06;7402686;19;1561;-57
2022/08/28 04:11:17;;;;;;;;;;;;;;;23.59;56.90;100514.00;7400552;19;1632;-57
2022/08/28 04:13:45;;;;;;;;;;;;;;;23.68;56.11;100517.53;7401991;19;1502;-58
2022/08/28 04:16:17;;;;;;;;;;;;;;;23.74;56.17;100500.63;7404603;19;1324;-58
2022/08/28 04:18:46;;;;;;;;;;;;;;;23.75;55.98;100512.28;7408367;19;1855;-59
2022/08/28 04:21:16;;;;;;;;;;;;;;;23.65;56.22;100504.38;7408779;19;1371;-57
2022/08/28 04:23:46;;;;;;;;;;;;;;;23.65;56.07;100508.94;7411705;19;1748;-57
2022/08/28 04:26:16;;;;;;;;;;;;;;;23.59;55.84;100510.47;7409965;19;1725;-58
2022/08/28 04:28:45;;;;;;;;;;;;;;;23.66;55.72;100519.56;7409651;19;1641;-60
2022/08/28 04:31:17;;;;;;;;;;;;;;;23.81;55.96;100528.69;7409356;19;1627;-58
2022/08/28 04:33:45;;;;;;;;;;;;;;;23.98;55.20;100512.41;7408867;19;1403;-60
2022/08/28 04:36:15;;;;;;;;;;;;;;;23.81;55.88;100507.06;7410507;19;1607;-61
2022/08/28 04:38:44;;;;;;;;;;;;;;;23.95;56.53;100523.56;7407990;19;1846;-63
2022/08/28 04:41:17;;;;;;;;;;;;;;;23.93;56.13;100536.38;7408474;19;1652;-58
2022/08/28 04:43:46;;;;;;;;;;;;;;;23.89;56.02;100533.19;7406210;19;1493;-57
2022/08/28 04:46:17;;;;;;;;;;;;;;;23.88;55.66;100528.81;7405055;19;1438;-57
2022/08/28 04:48:47;;;;;;;;;;;;;;;23.84;56.54;100526.66;7408038;19;1584;-57
2022/08/28 04:51:15;;;;;;;;;;;;;;;23.92;55.22;100532.84;7409320;19;1445;-58
2022/08/28 04:53:44;;;;;;;;;;;;;;;23.96;55.67;100525.25;7409303;19;1315;-62
2022/08/28 04:56:14;;;;;;;;;;;;;;;23.93;56.43;100541.78;7408499;19;1699;-62
2022/08/28 04:58:44;;;;;;;;;;;;;;;23.98;56.32;100524.06;7406995;19;1859;-58
2022/08/28 05:01:14;;;;;;;;;;;;;;;23.97;55.82;100532.31;7405682;19;1335;-58
2022/08/28 05:03:45;;;;;;;;;;;;;;;23.96;56.07;100536.88;7408306;19;1708;-56
2022/08/28 05:06:14;;;;;;;;;;;;;;;23.94;55.76;100527.28;7407089;19;1705;-56
2022/08/28 05:08:43;;;;;;;;;;;;;;;24.04;55.45;100548.69;7407536;19;1432;-55
2022/08/28 05:11:13;;;;;;;;;;;;;;;24.04;55.34;100536.03;7405493;19;1518;-59
2022/08/28 05:13:41;;;;;;;;;;;;;;;24.08;55.11;100547.31;7407325;19;1839;-58
2022/08/28 05:16:10;;;;;;;;;;;;;;;24.14;55.13;100547.47;7407821;19;1335;-61
2022/08/28 05:18:38;;;;;;;;;;;;;;;24.17;55.04;100533.63;7409364;19;1138;-57
2022/08/28 05:21:12;;;;;;;;;;;;;;;24.27;55.21;100538.78;7409752;19;1618;-57
2022/08/28 05:23:40;;;;;;;;;;;;;;;24.32;54.93;100519.34;7409368;19;1473;-57
2022/08/28 05:26:12;;;;;;;;;;;;;;;24.32;54.58;100536.41;7406441;19;1465;-61
2022/08/28 05:28:41;;;;;;;;;;;;;;;24.42;54.73;100547.00;7407348;19;1774;-62
2022/08/28 05:31:14;;;;;;;;;;;;;;;24.44;55.24;100528.75;7409499;19;1320;-62
2022/08/28 05:33:43;;;;;;;;;;;;;;;24.53;54.94;100538.53;7405603;19;1600;-64
2022/08/28 05:36:14;;;;;;;;;;;;;;;24.59;54.35;100540.53;7407606;19;1615;-61
2022/08/28 05:38:43;;;;;;;;;;;;;;;24.68;54.75;100525.06;7408744;19;1417;-57
2022/08/28 05:41:12;;;;;;;;;;;;;;;24.61;54.49;100529.50;7405031;19;1840;-56
2022/08/28 05:43:40;;;;;;;;;;;;;;;24.69;55.22;100536.72;7406226;19;1631;-59
2022/08/28 05:46:10;;;;;;;;;;;;;;;24.87;55.42;100528.31;7403531;19;1521;-58
2022/08/28 05:48:38;;;;;;;;;;;;;;;24.86;55.73;100541.00;7406199;19;1375;-57
2022/08/28 05:51:07;;;;;;;;;;;;;;;24.97;55.49;100547.88;7408968;19;1545;-56
2022/08/28 05:53:40;;;;;;;;;;;;;;;24.99;55.75;100552.09;7408609;19;1145;-57
2022/08/28 05:56:08;;;;;;;;;;;;;;;24.95;55.57;100534.53;7406111;19;1443;-57
2022/08/28 05:58:39;;;;;;;;;;;;;;;25.04;55.68;100534.47;7405981;19;1382;-56
2022/08/28 06:01:08;;;;;;;;;;;;;;;25.01;56.09;100549.22;7404566;19;1869;-56
2022/08/28 06:03:37;;;;;;;;;;;;;;;25.06;56.10;100548.66;7406910;19;1547;-57
2022/08/28 06:06:06;;;;;;;;;;;;;;;25.09;56.26;100534.75;7407406;19;1607;-57
2022/08/28 06:08:35;;;;;;;;;;;;;;;25.06;56.25;100549.50;7405441;19;1491;-56
2022/08/28 06:11:06;;;;;;;;;;;;;;;25.05;56.46;100555.94;7403785;19;1496;-56
2022/08/28 06:13:35;;;;;;;;;;;;;;;25.03;56.67;100536.34;7404375;19;1478;-57
2022/08/28 06:16:04;;;;;;;;;;;;;;;24.93;56.96;100533.00;7406274;19;1524;-63
2022/08/28 06:18:32;;;;;;;;;;;;;;;23.81;59.21;100555.69;7405689;19;1428;-65
2022/08/28 06:21:03;;;;;;;;;;;;;;;23.15;59.08;100562.09;7405198;19;1846;-65
2022/08/28 06:23:31;;;;;;;;;;;;;;;22.81;59.52;100557.66;7408154;19;1643;-66
2022/08/28 06:26:00;;;;;;;;;;;;;;;22.79;59.57;100554.28;7403830;19;1545;-62
2022/08/28 06:28:31;;;;;;;;;;;;;;;22.79;59.98;100559.66;7404699;19;1589;-58
2022/08/28 06:31:03;;;;;;;;;;;;;;;22.83;60.67;100561.03;7406006;19;1662;-57
2022/08/28 06:33:31;;;;;;;;;;;;;;;22.86;60.74;100566.09;7405330;19;1757;-58
2022/08/28 06:36:00;;;;;;;;;;;;;;;22.72;61.32;100559.50;7406332;19;1611;-57
2022/08/28 06:38:29;;;;;;;;;;;;;;;22.63;61.82;100561.31;7404606;19;1572;-57
2022/08/28 06:40:58;;;;;;;;;;;;;;;22.68;61.95;100559.97;7401487;19;1867;-57
2022/08/28 06:43:28;;;;;;;;;;;;;;;22.58;62.49;100569.06;7404441;19;1592;-57
2022/08/28 06:46:00;;;;;;;;;;;;;;;22.51;62.96;100568.03;7404869;19;1330;-57
2022/08/28 06:48:30;;;;;;;;;;;;;;;22.51;63.16;100568.03;7406359;19;1258;-57
2022/08/28 06:50:59;;;;;;;;;;;;;;;22.63;62.85;100572.09;7403973;19;1449;-60
2022/08/28 06:53:29;;;;;;;;;;;;;;;22.75;62.18;100566.41;7405320;19;1719;-59
2022/08/28 06:55:58;;;;;;;;;;;;;;;22.79;62.16;100562.38;7403213;19;1595;-57
2022/08/28 06:58:27;;;;;;;;;;;;;;;22.59;62.85;100570.75;7406331;19;1498;-57
2022/08/28 07:01:05;;;;;;;;;;;;;;;22.66;63.20;100553.91;7401986;19;1845;-61
2022/08/28 07:03:33;;;;;;;;;;;;;;;22.86;63.24;100555.31;7404692;19;1742;-61
2022/08/28 07:06:03;;;;;;;;;;;;;;;22.63;63.78;100553.22;7403873;19;1562;-61
2022/08/28 07:08:33;;;;;;;;;;;;;;;22.77;64.61;100559.00;7403926;19;1663;-60
2022/08/28 07:11:01;;;;;;;;;;;;;;;23.13;65.57;100556.03;7399691;19;1526;-61
2022/08/28 07:13:30;;;;;;;;;;;;;;;23.49;66.59;100551.13;7403056;19;1549;-67
2022/08/28 07:15:58;;;;;;;;;;;;;;;23.79;68.33;100563.09;7404395;19;1350;-68
2022/08/28 07:18:29;;;;;;;;;;;;;;;23.96;68.51;100561.19;7405438;19;1562;-71
2022/08/28 07:20:59;;;;;;;;;;;;;;;23.90;66.38;100550.25;7404487;19;1868;-61
2022/08/28 07:23:28;;;;;;;;;;;;;;;23.63;65.94;100538.78;7403240;19;1636;-58
2022/08/28 07:25:56;;;;;;;;;;;;;;;23.55;65.94;100557.69;7401631;19;1707;-59
2022/08/28 07:28:25;;;;;;;;;;;;;;;23.46;66.77;100550.63;7400631;19;1221;-58
2022/08/28 07:31:00;;;;;;;;;;;;;;;23.54;67.36;100554.16;7401649;19;1655;-60
2022/08/28 07:33:31;;;;;;;;;;;;;;;23.59;67.43;100548.25;7404400;19;1509;-59
2022/08/28 07:36:02;;;;;;;;;;;;;;;23.74;67.50;100554.63;7402295;19;1629;-59
2022/08/28 07:38:31;;;;;;;;;;;;;;;23.79;67.79;100546.03;7402404;19;1538;-60
2022/08/28 07:40:59;;;;;;;;;;;;;;;23.81;68.30;100554.81;7398985;19;1846;-61
2022/08/28 07:46:10;;;;;;;;;;;;;;;23.90;68.84;100552.94;7401771;19;1694;-65
2022/08/28 07:48:44;;;;;;;;;;;;;;;24.01;69.52;100541.75;7402709;19;1639;-58
2022/08/28 07:51:13;;;;;;;;;;;;;;;23.86;67.91;100540.81;7408519;19;1624;-58
2022/08/28 07:53:41;;;;;;;;;;;;;;;23.70;68.26;100542.50;7411372;19;1519;-56
2022/08/28 07:56:10;;;;;;;;;;;;;;;23.67;67.41;100544.69;7410435;19;1398;-57
2022/08/28 07:58:39;;;;;;;;;;;;;;;23.59;67.42;100545.53;7410513;19;1680;-59
2022/08/28 08:01:07;;;;;;;;;;;;;;;23.49;65.71;100544.88;7407359;19;1867;-58
2022/08/28 08:03:36;;;;;;;;;;;;;;;23.54;64.92;100542.53;7409360;19;1562;-58
2022/08/28 08:06:07;;;;;;;;;;;;;;;23.72;64.98;100540.47;7411117;19;1652;-61
2022/08/28 08:08:36;;;;;;;;;;;;;;;23.71;66.58;100541.47;7408883;19;1382;-58
2022/08/28 08:11:06;;;;;;;;;;;;;;;23.55;67.77;100515.34;7405421;19;1495;-60
2022/08/28 08:13:35;;;;;;;;;;;;;;;23.64;67.52;100535.09;7411048;19;1302;-58
2022/08/28 08:16:04;;;;;;;;;;;;;;;23.65;68.33;100538.63;7406454;19;1283;-58
2022/08/28 08:18:32;;;;;;;;;;;;;;;23.55;69.19;100536.09;7407535;19;1356;-58
2022/08/28 08:21:01;;;;;;;;;;;;;;;23.54;69.69;100527.19;7409689;19;1849;-58
2022/08/28 08:23:33;;;;;;;;;;;;;;;23.50;70.03;100542.03;7405564;19;1795;-58
2022/08/28 08:26:03;;;;;;;;;;;;;;;23.60;70.23;100536.44;7408055;19;1761;-58
2022/08/28 08:28:33;;;;;;;;;;;;;;;23.72;70.07;100543.16;7409088;19;1514;-58
2022/08/28 08:31:06;;;;;;;;;;;;;;;23.56;70.73;100533.25;7409740;19;1417;-58
2022/08/28 08:33:35;;;;;;;;;;;;;;;23.76;70.80;100540.97;7408601;19;1540;-58
2022/08/28 08:36:03;;;;;;;;;;;;;;;23.72;70.30;100536.94;7408749;19;1524;-60
2022/08/28 08:38:37;;;;;;;;;;;;;;;23.60;69.87;100547.25;7407265;19;1746;-61
2022/08/28 08:41:07;;;;;;;;;;;;;;;23.41;69.64;100541.19;7405841;19;1850;-58
2022/08/28 08:43:45;;;;;;;;;;;;;;;23.47;70.19;100530.72;7408208;19;1319;-58
2022/08/28 08:46:14;;;;;;;;;;;;;;;23.50;70.73;100543.91;7409048;19;1565;-58
2022/08/28 08:48:44;;;;;;;;;;;;;;;23.40;71.08;100544.91;7409427;19;1361;-58
2022/08/28 08:51:16;;;;;;;;;;;;;;;23.69;70.56;100524.59;7407568;19;1302;-61
2022/08/28 08:53:51;;;;;;;;;;;;;;;23.87;69.97;100527.13;7410234;19;1283;-60
2022/08/28 08:56:20;;;;;;;;;;;;;;;23.78;69.40;100529.00;7409458;19;1524;-60
2022/08/28 08:58:50;;;;;;;;;;;;;;;23.69;68.14;100532.69;7409938;19;1692;-59
2022/08/28 09:01:21;;;;;;;;;;;;;;;23.54;67.84;100531.75;7403352;19;1861;-59
2022/08/28 09:03:54;;;;;;;;;;;;;;;23.46;67.30;100529.03;7404798;19;1287;-59
2022/08/28 09:06:27;;;;;;;;;;;;;;;23.42;66.62;100526.69;7408656;19;1271;-59
2022/08/28 09:09:00;;;;;;;;;;;;;;;23.53;65.92;100530.03;7406268;19;1335;-63
2022/08/28 09:11:37;;;;;;;;;;;;;;;23.64;65.23;100516.19;7408875;19;1255;-61
2022/08/28 09:14:08;;;;;;;;;;;;;;;23.50;65.09;100514.22;7408345;19;1521;-59
2022/08/28 09:16:40;;;;;;;;;;;;;;;23.39;64.84;100520.78;7408101;19;1295;-60
2022/08/28 09:19:11;;;;;;;;;;;;;;;23.44;65.60;100523.81;7407278;19;1287;-67
2022/08/28 09:21:41;;;;;;;;;;;;;;;23.46;66.10;100527.19;7408301;19;1861;-60
2022/08/28 09:24:14;;;;;;;;;;;;;;;23.74;65.66;100522.25;7410183;19;1452;-79
2022/08/28 09:26:42;;;;;;;;;;;;;;;23.89;65.74;100518.84;7409681;19;1529;-58
2022/08/28 09:29:20;;;;;;;;;;;;;;;23.95;66.29;100528.94;7406639;19;1906;-77
2022/08/28 09:31:48;;;;;;;;;;;;;;;23.90;65.64;100521.38;7410743;19;1295;-68
2022/08/28 09:34:37;;;;;;;;;;;;;;;24.02;67.19;100519.97;7408660;19;1318;-70
2022/08/28 09:37:08;;;;;;;;;;;;;;;24.03;67.21;100520.81;7409181;19;1759;-69
2022/08/28 09:39:39;;;;;;;;;;;;;;;23.86;67.59;100520.03;7409291;19;1388;-73
2022/08/28 09:45:00;;;;;;;;;;;;;;;23.81;67.86;100517.88;7407566;19;1420;-59
2022/08/28 09:47:35;;;;;;;;;;;;;;;24.14;67.05;100511.50;7408534;19;1536;-58
2022/08/28 09:50:18;;;;;;;;;;;;;;;24.37;66.74;100514.25;7407726;19;1616;-71
2022/08/28 09:52:47;;;;;;;;;;;;;;;24.44;66.58;100501.72;7407829;19;1746;-69
2022/08/28 09:55:21;;;;;;;;;;;;;;;24.48;66.32;100510.31;7405865;19;1464;-58
2022/08/28 09:57:50;;;;;;;;;;;;;;;24.04;65.50;100492.81;7405436;19;1682;-58
2022/08/28 10:00:18;;;;;;;;;;;;;;;23.31;65.37;100512.69;7402854;19;1873;-59
2022/08/28 10:02:49;;;;;;;;;;;;;;;22.92;65.52;100503.41;7408475;19;1480;-58
2022/08/28 10:05:20;;;;;;;;;;;;;;;22.71;65.60;100494.97;7406481;19;1431;-58
2022/08/28 10:07:53;;;;;;;;;;;;;;;22.72;66.58;100513.69;7406834;19;1642;-70
2022/08/28 10:10:29;;;;;;;;;;;;;;;22.72;66.65;100493.94;7405777;19;1449;-68
2022/08/28 10:13:02;;;;;;;;;;;;;;;22.67;66.69;100501.69;7407231;19;1354;-69
2022/08/28 10:15:34;;;;;;;;;;;;;;;22.66;66.36;100500.00;7404965;19;1240;-58
2022/08/28 10:18:16;;;;;;;;;;;;;;;22.66;66.41;100502.69;7404982;19;1762;-58
2022/08/28 10:20:48;;;;;;;;;;;;;;;22.77;66.71;100494.28;7405066;19;1872;-71
2022/08/28 10:23:21;;;;;;;;;;;;;;;22.80;67.09;100491.25;7405372;19;1563;-72
2022/08/28 10:25:56;;;;;;;;;;;;;;;22.83;67.09;100480.16;7401838;19;1587;-69
2022/08/28 10:28:40;;;;;;;;;;;;;;;22.83;67.30;100485.53;7407131;19;1505;-72
2022/08/28 10:31:11;;;;;;;;;;;;;;;22.86;67.51;100482.53;7407110;19;1231;-71
2022/08/28 10:33:49;;;;;;;;;;;;;;;22.87;67.48;100476.09;7408253;19;1719;-70
2022/08/28 10:36:20;;;;;;;;;;;;;;;22.84;67.20;100481.84;7406890;19;1667;-70
2022/08/28 10:38:51;;;;;;;;;;;;;;;22.83;67.19;100488.22;7406485;19;1652;-73
2022/08/28 10:41:25;;;;;;;;;;;;;;;22.98;67.01;100477.63;7404641;19;1855;-73
2022/08/28 10:43:56;;;;;;;;;;;;;;;22.83;67.18;100475.59;7404460;19;1503;-71
2022/08/28 10:46:25;;;;;;;;;;;;;;;22.80;67.41;100464.28;7396895;19;1647;-71
2022/08/28 10:48:57;;;;;;;;;;;;;;;22.82;67.27;100478.47;7400192;19;1544;-71
2022/08/28 10:51:30;;;;;;;;;;;;;;;22.82;67.24;100470.38;7402977;19;1572;-59
2022/08/28 10:54:01;;;;;;;;;;;;;;;22.78;67.21;100472.56;7397133;19;2034;-59
2022/08/28 10:56:37;;;;;;;;;;;;;;;22.81;67.01;100476.78;7400116;19;1537;-70
2022/08/28 10:59:06;;;;;;;;;;;;;;;22.84;67.05;100488.06;7403220;19;1444;-70
2022/08/28 11:01:35;;;;;;;;;;;;;;;22.82;66.92;100481.16;7403621;19;1838;-71
2022/08/28 11:04:07;;;;;;;;;;;;;;;22.87;66.93;100470.72;7405046;19;1645;-70
2022/08/28 11:06:37;;;;;;;;;;;;;;;22.78;67.16;100460.91;7404616;19;1624;-70
2022/08/28 11:09:23;;;;;;;;;;;;;;;22.78;67.44;100463.63;7405461;19;1614;-70
2022/08/28 11:11:55;;;;;;;;;;;;;;;22.82;67.18;100468.53;7405185;19;1604;-70
2022/08/28 11:14:25;;;;;;;;;;;;;;;22.78;67.25;100471.69;7405960;19;1674;-71
2022/08/28 11:16:55;;;;;;;;;;;;;;;22.80;67.30;100469.69;7404393;19;1355;-71
2022/08/28 11:19:36;;;;;;;;;;;;;;;22.77;67.19;100475.44;7405715;19;1780;-69
2022/08/28 11:22:11;;;;;;;;;;;;;;;22.80;66.98;100466.97;7403711;19;1846;-71
2022/08/28 11:24:46;;;;;;;;;;;;;;;22.72;67.37;100466.97;7405136;19;1564;-69
2022/08/28 11:27:23;;;;;;;;;;;;;;;22.70;67.25;100467.19;7405488;19;1508;-69
2022/08/28 11:30:06;;;;;;;;;;;;;;;22.70;67.38;100469.88;7404892;19;1542;-69
2022/08/28 11:32:39;;;;;;;;;;;;;;;22.62;67.13;100451.84;7405675;19;1497;-70
2022/08/28 11:35:27;;;;;;;;;;;;;;;22.66;67.33;100462.25;7404588;19;1666;-59
2022/08/28 11:37:59;;;;;;;;;;;;;;;22.63;67.34;100453.50;7401464;19;1866;-59
2022/08/28 11:40:42;;;;;;;;;;;;;;;22.66;67.08;100467.66;7404029;19;1473;-69
2022/08/28 11:43:26;;;;;;;;;;;;;;;22.68;67.04;100452.16;7402643;19;1890;-70
2022/08/28 11:46:12;;;;;;;;;;;;;;;22.76;66.82;100452.16;7404990;19;1484;-69
2022/08/28 11:48:49;;;;;;;;;;;;;;;22.73;66.80;100463.28;7405889;19;1444;-58
2022/08/28 11:51:30;;;;;;;;;;;;;;;22.66;67.31;100446.09;7402435;19;1679;-59
2022/08/28 11:54:03;;;;;;;;;;;;;;;22.68;67.03;100449.47;7401733;19;1765;-59
2022/08/28 11:56:37;;;;;;;;;;;;;;;22.63;67.10;100445.41;7403124;19;1695;-58
2022/08/28 11:59:15;;;;;;;;;;;;;;;22.67;67.20;100437.00;7401433;19;1464;-59
2022/08/28 12:01:46;;;;;;;;;;;;;;;22.70;67.07;100431.28;7401359;19;1854;-59
2022/08/28 12:04:16;;;;;;;;;;;;;;;22.68;67.26;100446.75;7401939;19;1631;-59
2022/08/28 12:06:56;;;;;;;;;;;;;;;22.60;67.34;100435.00;7402891;19;1563;-59
2022/08/28 12:09:38;;;;;;;;;;;;;;;22.59;67.65;100435.97;7402510;19;1742;-59
2022/08/28 12:12:11;;;;;;;;;;;;;;;22.55;67.35;100431.94;7398661;19;1531;-59
2022/08/28 12:15:06;;;;;;;;;;;;;;;22.60;67.30;100432.28;7401882;19;1708;-58
2022/08/28 12:17:45;;;;;;;;;;;;;;;22.63;67.51;100436.50;7403696;19;1464;-59
2022/08/28 12:20:19;;;;;;;;;;;;;;;22.56;67.19;100433.63;7401377;19;1742;-59
2022/08/28 12:22:51;;;;;;;;;;;;;;;22.61;67.40;100430.44;7400295;19;1861;-59
2022/08/28 12:25:24;;;;;;;;;;;;;;;22.58;67.32;100433.44;7401004;19;1635;-59
2022/08/28 12:27:53;;;;;;;;;;;;;;;22.60;67.17;100426.91;7402205;19;1303;-59
2022/08/28 12:30:32;;;;;;;;;;;;;;;22.60;67.04;100426.91;7401332;19;1632;-59
2022/08/28 12:33:08;;;;;;;;;;;;;;;22.58;67.13;100425.38;7403319;19;1347;-70
2022/08/28 12:35:37;;;;;;;;;;;;;;;22.63;67.31;100421.16;7403403;19;1347;-69
2022/08/28 12:38:08;;;;;;;;;;;;;;;22.60;67.04;100432.28;7405891;19;1426;-59
2022/08/28 12:40:49;;;;;;;;;;;;;;;22.55;67.30;100414.94;7406930;19;1403;-59
2022/08/28 12:43:21;;;;;;;;;;;;;;;22.54;67.30;100421.31;7407014;19;1843;-59
2022/08/28 12:45:51;;;;;;;;;;;;;;;22.63;67.23;100434.63;7409028;19;1315;-59
2022/08/28 12:48:23;;;;;;;;;;;;;;;22.57;67.30;100411.06;7409951;19;1745;-58
2022/08/28 12:50:59;;;;;;;;;;;;;;;22.59;67.33;100414.44;7408993;19;1675;-59
2022/08/28 12:53:27;;;;;;;;;;;;;;;22.48;67.33;100405.81;7408799;19;1356;-59
2022/08/28 12:55:56;;;;;;;;;;;;;;;22.47;66.90;100421.16;7404810;19;1803;-59
2022/08/28 12:58:31;;;;;;;;;;;;;;;22.58;66.93;100411.88;7408663;19;1916;-59
2022/08/28 13:01:01;;;;;;;;;;;;;;;22.58;67.38;100423.53;7404658;19;1485;-59
2022/08/28 13:03:32;;;;;;;;;;;;;;;22.50;67.76;100415.44;7406562;19;1845;-58
2022/08/28 13:06:04;;;;;;;;;;;;;;;22.57;67.49;100405.66;7409361;19;1469;-59
2022/08/28 13:08:33;;;;;;;;;;;;;;;22.53;68.43;100398.94;7407438;19;1647;-59
2022/08/28 13:11:02;;;;;;;;;;;;;;;22.52;68.85;100401.78;7405723;19;1548;-59
2022/08/28 13:13:34;;;;;;;;;;;;;;;22.57;68.78;100412.91;7409667;19;1612;-59
2022/08/28 13:16:04;;;;;;;;;;;;;;;22.54;68.83;100402.47;7408159;19;1553;-59